Home > Products > Valid Products > TAF

000
FTUS44 KFWD 101730
TAFDFW
TAF
KDFW 101730Z 1018/1124 21016KT P6SM SKC
     FM110900 24009KT P6SM SKC
     FM111500 32009KT P6SM SKC
     FM111700 36008KT P6SM SKC=



000
FTUS44 KFWD 101730
TAFACT
TAF
KACT 101730Z 1018/1118 20012KT P6SM SKC
     FM111600 24006KT P6SM SKC=



000
FTUS44 KFWD 101730
TAFFTW
TAF
KFTW 101730Z 1018/1118 21014KT P6SM SKC
     FM110100 20011KT P6SM SKC
     FM111100 24006KT P6SM SKC
     FM111500 32009KT P6SM SKC
     FM111700 36008KT P6SM SKC=



000
FTUS44 KFWD 101730
TAFDFW
TAF
KDFW 101730Z 1018/1124 21016KT P6SM SKC
     FM110900 24009KT P6SM SKC
     FM111500 32009KT P6SM SKC
     FM111700 36008KT P6SM SKC=



000
FTUS44 KFWD 101730
TAFFTW
TAF
KFTW 101730Z 1018/1118 21014KT P6SM SKC
     FM110100 20011KT P6SM SKC
     FM111100 24006KT P6SM SKC
     FM111500 32009KT P6SM SKC
     FM111700 36008KT P6SM SKC=



000
FTUS44 KFWD 101730
TAFACT
TAF
KACT 101730Z 1018/1118 20012KT P6SM SKC
     FM111600 24006KT P6SM SKC=



000
FTUS44 KFWD 101457 AAB
TAFDFW
TAF AMD
KDFW 101457Z 1015/1118 19008KT P6SM SKC
     FM101700 21016KT P6SM SKC
     FM110900 24009KT P6SM SKC
     FM111500 32009KT P6SM SKC
     FM111700 36008KT P6SM SKC=



000
FTUS44 KFWD 101457 AAB
TAFFTW
TAF AMD
KFTW 101457Z 1015/1112 20006KT P6SM SKC
     FM101800 21014KT P6SM SKC
     FM110100 20011KT P6SM SKC
     FM111100 24006KT P6SM SKC=



000
FTUS44 KFWD 101457 AAB
TAFACT
TAF AMD
KACT 101457Z 1015/1112 24005KT P6SM SKC
     FM101700 20012KT P6SM SKC=



000
FTUS44 KFWD 101450 RRA
TAFFTW
TAF
KFTW 101450Z 1015/1112 20006KT P6SM SKC
     FM101800 21014KT P6SM SKC
     FM110100 20011KT P6SM SKC
     FM111100 24006KT P6SM SKC=



000
FTUS44 KFWD 101450 RRA
TAFACT
TAF
KACT 101450Z 1015/1112 20012KT P6SM SKC=



000
FTUS44 KFWD 101450 RRA
TAFDFW
TAF
KDFW 101450Z 1015/1118 20008KT P6SM SKC
     FM101700 21016KT P6SM SKC
     FM110900 24009KT P6SM SKC
     FM111500 32009KT P6SM SKC
     FM111700 36008KT P6SM SKC=



000
FTUS44 KFWD 100850 AAA
TAFACT
TAF AMD
KACT 100850Z 1009/1106 36005KT P6SM SKC
     FM101100 15004KT P6SM SKC
     FM101800 20014KT P6SM SKC=



000
FTUS44 KFWD 100850 AAA
TAFFTW
TAF AMD
KFTW 100850Z 1009/1106 03006KT P6SM FEW200
     FM101100 14005KT P6SM SKC
     FM101700 21016KT P6SM SKC=



000
FTUS44 KFWD 100850 AAA
TAFDFW
TAF AMD
KDFW 100850Z 1009/1112 02008KT P6SM FEW200
     FM101100 15005KT P6SM SKC
     FM101700 21017KT P6SM SKC
     FM110600 25008KT P6SM SKC=



000
FTUS44 KFWD 100530
TAFDFW
TAF
KDFW 100530Z 1006/1112 02008KT P6SM FEW200
     FM101100 15005KT P6SM SKC
     FM101700 21017KT P6SM SKC
     FM110600 25008KT P6SM SKC=



000
FTUS44 KFWD 100530
TAFACT
TAF
KACT 100530Z 1006/1106 36005KT P6SM SKC
     FM101100 15004KT P6SM SKC
     FM101800 20014KT P6SM SKC=



000
FTUS44 KFWD 100530
TAFFTW
TAF
KFTW 100530Z 1006/1106 03006KT P6SM FEW200
     FM101100 14005KT P6SM SKC
     FM101700 21016KT P6SM SKC=



000
FTUS44 KFWD 100330 AAA
TAFFTW
TAF AMD
KFTW 100330Z 1004/1024 03007KT P6SM FEW200
     FM100900 14005KT P6SM SKC
     FM101700 20016KT P6SM SKC=



000
FTUS44 KFWD 100330 AAA
TAFACT
TAF AMD
KACT 100330Z 1004/1024 36006KT P6SM FEW200
     FM100700 16004KT P6SM SKC
     FM101700 20014KT P6SM SKC=



000
FTUS44 KFWD 100330 AAA
TAFDFW
TAF AMD
KDFW 100330Z 1004/1106 02008KT P6SM FEW200
     FM100900 15005KT P6SM SKC
     FM101700 20015KT P6SM SKC=



000
FTUS44 KFWD 100330 AAA
TAFFTW
TAF AMD
KFTW 100330Z 1004/1024 03007KT P6SM FEW200
     FM100900 14005KT P6SM SKC
     FM101700 20016KT P6SM SKC=



000
FTUS44 KFWD 100330 AAA
TAFACT
TAF AMD
KACT 100330Z 1004/1024 36006KT P6SM FEW200
     FM100700 16004KT P6SM SKC
     FM101700 20014KT P6SM SKC=



000
FTUS44 KFWD 100330 AAA
TAFDFW
TAF AMD
KDFW 100330Z 1004/1106 02008KT P6SM FEW200
     FM100900 15005KT P6SM SKC
     FM101700 20015KT P6SM SKC=



000
FTUS44 KFWD 092335
TAFFTW
TAF
KFTW 092335Z 1000/1024 35010KT P6SM FEW200
     FM100900 14005KT P6SM SKC
     FM101700 20016KT P6SM SKC=



000
FTUS44 KFWD 092335
TAFACT
TAF
KACT 092335Z 1000/1024 36010KT P6SM FEW200
     FM100700 16004KT P6SM SKC
     FM101700 20014KT P6SM SKC=



000
FTUS44 KFWD 092335
TAFDFW
TAF
KDFW 092335Z 1000/1106 02010KT P6SM FEW200
     FM100900 15005KT P6SM SKC
     FM101700 20015KT P6SM SKC=



000
FTUS44 KFWD 092335
TAFFTW
TAF
KFTW 092335Z 1000/1024 35010KT P6SM FEW200
     FM100900 14005KT P6SM SKC
     FM101700 20016KT P6SM SKC=



000
FTUS44 KFWD 092335
TAFDFW
TAF
KDFW 092335Z 1000/1106 02010KT P6SM FEW200
     FM100900 15005KT P6SM SKC
     FM101700 20015KT P6SM SKC=



000
FTUS44 KFWD 092335
TAFACT
TAF
KACT 092335Z 1000/1024 36010KT P6SM FEW200
     FM100700 16004KT P6SM SKC
     FM101700 20014KT P6SM SKC=



000
FTUS44 KFWD 092052 AAA
TAFACT
TAF AMD
KACT 092052Z 0921/1018 31015G20KT P6SM SKC
     FM100100 01006KT P6SM SKC
     FM100300 VRB04KT P6SM SKC
     FM101700 20008KT P6SM SKC=



000
FTUS44 KFWD 092052 AAA
TAFDFW
TAF AMD
KDFW 092052Z 0921/1024 33014G20KT P6SM SKC
     FM100100 35008KT P6SM SKC
     FM100300 VRB05KT P6SM SKC
     FM101600 20008KT P6SM SKC=



000
FTUS44 KFWD 092052 AAA
TAFFTW
TAF AMD
KFTW 092052Z 0921/1018 32010G20KT P6SM SKC
     FM100100 35008KT P6SM SKC
     FM100300 VRB05KT P6SM SKC
     FM101600 20008KT P6SM SKC=



000
FTUS44 KFWD 091721
TAFACT
TAF
KACT 091721Z 0918/1018 31010G20KT P6SM SKC
     FM100100 01006KT P6SM SKC
     FM100300 VRB04KT P6SM SKC
     FM101700 20008KT P6SM SKC=



000
FTUS44 KFWD 091721
TAFDFW
TAF
KDFW 091721Z 0918/1024 32010G20KT P6SM FEW250
     FM100100 35008KT P6SM SKC
     FM100300 VRB05KT P6SM SKC
     FM101600 20008KT P6SM SKC=



000
FTUS44 KFWD 091721
TAFFTW
TAF
KFTW 091721Z 0918/1018 32010G20KT P6SM FEW250
     FM100100 35008KT P6SM SKC
     FM100300 VRB05KT P6SM SKC
     FM101600 20008KT P6SM SKC=



000
FTUS44 KFWD 091721
TAFFTW
TAF
KFTW 091721Z 0918/1018 32010G20KT P6SM FEW250
     FM100100 35008KT P6SM SKC
     FM100300 VRB05KT P6SM SKC
     FM101600 20008KT P6SM SKC=



000
FTUS44 KFWD 091721
TAFACT
TAF
KACT 091721Z 0918/1018 31010G20KT P6SM SKC
     FM100100 01006KT P6SM SKC
     FM100300 VRB04KT P6SM SKC
     FM101700 20008KT P6SM SKC=



000
FTUS44 KFWD 091721
TAFDFW
TAF
KDFW 091721Z 0918/1024 32010G20KT P6SM FEW250
     FM100100 35008KT P6SM SKC
     FM100300 VRB05KT P6SM SKC
     FM101600 20008KT P6SM SKC=



000
FTUS44 KFWD 091455 AAA
TAFFTW
TAF AMD
KFTW 091455Z 0915/1012 30006KT P6SM SKC
     FM091700 32010G20KT P6SM FEW100
     FM100100 35008KT P6SM SKC=



000
FTUS44 KFWD 091455 AAA
TAFACT
TAF AMD
KACT 091455Z 0915/1012 29010KT P6SM SKC
     FM091700 32010G20KT P6SM SKC
     FM100100 36007KT P6SM SKC=



000
FTUS44 KFWD 091455 AAA
TAFDFW
TAF AMD
KDFW 091455Z 0915/1018 31011KT P6SM SKC
     FM091700 32010G20KT P6SM FEW100
     FM100100 35008KT P6SM SKC=



000
FTUS44 KFWD 091121
TAFACT
TAF
KACT 091121Z 0912/1012 29010KT P6SM SKC
     FM091600 32010G20KT P6SM SKC
     FM100100 36007KT P6SM SKC=



000
FTUS44 KFWD 091121
TAFFTW
TAF
KFTW 091121Z 0912/1012 32011KT P6SM SKC
     FM091600 32010G20KT P6SM FEW100
     FM100100 35008KT P6SM SKC=



000
FTUS44 KFWD 091121
TAFDFW
TAF
KDFW 091121Z 0912/1018 32011KT P6SM SKC
     FM091600 32010G20KT P6SM FEW100
     FM100100 35008KT P6SM SKC=



000
FTUS44 KFWD 090850 AAA
TAFFTW
TAF AMD
KFTW 090850Z 0909/1006 32011KT P6SM SKC
     FM091600 32014G24KT P6SM FEW100
     FM100100 35008KT P6SM SKC=



000
FTUS44 KFWD 090850 AAA
TAFDFW
TAF AMD
KDFW 090850Z 0909/1012 32011KT P6SM SKC
     FM091600 32014G24KT P6SM FEW100
     FM100100 35008KT P6SM SKC=



000
FTUS44 KFWD 090850 AAA
TAFACT
TAF AMD
KACT 090850Z 0909/1006 29010KT P6SM SKC
     FM091600 32012G22KT P6SM SKC
     FM100100 36007KT P6SM SKC=



000
FTUS44 KFWD 090528
TAFACT
TAF
KACT 090528Z 0906/1006 29010KT P6SM SKC
     FM091600 32012G22KT P6SM SKC
     FM100100 36007KT P6SM SKC=



000
FTUS44 KFWD 090528
TAFFTW
TAF
KFTW 090528Z 0906/1006 32011KT P6SM SKC
     FM091600 32014G24KT P6SM FEW100
     FM100100 35008KT P6SM SKC=



000
FTUS44 KFWD 090528
TAFDFW
TAF
KDFW 090528Z 0906/1012 32011KT P6SM SKC
     FM091600 32014G24KT P6SM FEW100
     FM100100 35008KT P6SM SKC=



000
FTUS44 KFWD 090253 AAA
TAFFTW
TAF AMD
KFTW 090253Z 0903/0924 32013KT P6SM SKC
     FM091600 32014G24KT P6SM SKC=



000
FTUS44 KFWD 090253 AAA
TAFDFW
TAF AMD
KDFW 090253Z 0903/1006 32013KT P6SM SKC
     FM091600 32014G24KT P6SM SKC=



000
FTUS44 KFWD 090253 AAA
TAFACT
TAF AMD
KACT 090253Z 0903/0924 30011KT P6SM SKC
     FM091600 32012G22KT P6SM SKC=



000
FTUS44 KFWD 082331
TAFDFW
TAF
KDFW 082331Z 0900/1006 33024G34KT P6SM FEW300
     FM090100 32015KT P6SM SKC
     FM091600 32014G24KT P6SM SKC=



000
FTUS44 KFWD 082331
TAFACT
TAF
KACT 082331Z 0900/0924 34020G30KT P6SM SCT300
     FM090100 31014KT P6SM SKC
     FM090500 28008KT P6SM SKC
     FM091600 32012G22KT P6SM SKC=



000
FTUS44 KFWD 082331
TAFDFW
TAF
KDFW 082331Z 0900/1006 33024G34KT P6SM FEW300
     FM090100 32015KT P6SM SKC
     FM091600 32014G24KT P6SM SKC=



000
FTUS44 KFWD 082331
TAFFTW
TAF
KFTW 082331Z 0900/0924 33022G32KT P6SM FEW300
     FM090100 32015KT P6SM SKC
     FM091600 32014G24KT P6SM SKC=



000
FTUS44 KFWD 082331
TAFACT
TAF
KACT 082331Z 0900/0924 34020G30KT P6SM SCT300
     FM090100 31014KT P6SM SKC
     FM090500 28008KT P6SM SKC
     FM091600 32012G22KT P6SM SKC=



000
FTUS44 KFWD 082331
TAFFTW
TAF
KFTW 082331Z 0900/0924 33022G32KT P6SM FEW300
     FM090100 32015KT P6SM SKC
     FM091600 32014G24KT P6SM SKC=



000
FTUS44 KFWD 082059 AAA
TAFDFW
TAF AMD
KDFW 082059Z 0821/0924 33024G33KT P6SM FEW300
     FM090100 32014KT P6SM SKC=



000
FTUS44 KFWD 082059 AAA
TAFFTW
TAF AMD
KFTW 082059Z 0821/0918 33024G32KT P6SM FEW300
     FM090100 32014KT P6SM SKC=



000
FTUS44 KFWD 082059 AAA
TAFACT
TAF AMD
KACT 082059Z 0821/0918 34020G30KT P6SM SCT300
     FM090100 31014KT P6SM SKC
     FM090500 28008KT P6SM SKC=



000
FTUS44 KFWD 081720
TAFFTW
TAF
KFTW 081720Z 0818/0918 33024G34KT P6SM FEW300
     FM090000 32014KT P6SM SKC=



000
FTUS44 KFWD 081720
TAFDFW
TAF
KDFW 081720Z 0818/0924 33024G34KT P6SM FEW300
     FM090000 32014KT P6SM SKC=



000
FTUS44 KFWD 081720
TAFDFW
TAF
KDFW 081720Z 0818/0924 33024G35KT P6SM FEW300
     FM090000 32014KT P6SM SKC=



000
FTUS44 KFWD 081720
TAFFTW
TAF
KFTW 081720Z 0818/0918 33024G35KT P6SM FEW300
     FM090000 32014KT P6SM SKC=



000
FTUS44 KFWD 081720
TAFACT
TAF
KACT 081720Z 0818/0918 34020G30KT P6SM SCT300
     FM090000 31014KT P6SM SKC
     FM090500 28008KT P6SM SKC=



000
FTUS44 KFWD 081451 AAA
TAFFTW
TAF AMD
KFTW 081451Z 0815/0912 32017KT P6SM FEW300
     FM081700 33022G32KT P6SM FEW300
     FM090200 32014KT P6SM SKC=



000
FTUS44 KFWD 081451 AAA
TAFDFW
TAF AMD
KDFW 081451Z 0815/0918 32018KT P6SM FEW300
     FM081700 33024G34KT P6SM FEW300
     FM090200 32014KT P6SM SKC=



000
FTUS44 KFWD 081451 AAB
TAFACT
TAF AMD
KACT 081451Z 0815/0912 32016KT P6SM SCT300
     FM081700 34021G31KT P6SM SCT300
     FM090300 32014KT P6SM SKC=



000
FTUS44 KFWD 081309 AAA
TAFACT
TAF AMD
KACT 081309Z 0813/0912 32016KT P6SM SKC
     FM081700 34021G31KT P6SM FEW300
     FM090300 32014KT P6SM SKC=



000
FTUS44 KFWD 081120
TAFACT
TAF
KACT 081120Z 0812/0912 34016KT P6SM SKC
     FM081700 34021G31KT P6SM FEW300
     FM090300 32014KT P6SM SKC=



000
FTUS44 KFWD 081120
TAFDFW
TAF
KDFW 081120Z 0812/0918 32018KT P6SM FEW300
     FM081700 33024G34KT P6SM FEW300
     FM090200 32014KT P6SM SKC=



000
FTUS44 KFWD 081120
TAFFTW
TAF
KFTW 081120Z 0812/0912 32017KT P6SM FEW300
     FM081700 33022G32KT P6SM FEW300
     FM090200 32014KT P6SM SKC=



000
FTUS44 KFWD 081120
TAFACT
TAF
KACT 081120Z 0812/0912 34016KT P6SM SKC
     FM081700 34021G31KT P6SM FEW300
     FM090300 32014KT P6SM SKC=



000
FTUS44 KFWD 081120
TAFDFW
TAF
KDFW 081120Z 0812/0918 32018KT P6SM FEW300
     FM081700 33024G34KT P6SM FEW300
     FM090200 32014KT P6SM SKC=



000
FTUS44 KFWD 081120
TAFFTW
TAF
KFTW 081120Z 0812/0912 32017KT P6SM FEW300
     FM081700 33022G32KT P6SM FEW300
     FM090200 32014KT P6SM SKC=



000
FTUS44 KFWD 080907 AAA
TAFACT
TAF AMD
KACT 080907Z 0809/0906 34016KT P6SM SKC
     FM081700 34021G31KT P6SM FEW300
     FM090300 32014KT P6SM SKC=



000
FTUS44 KFWD 080907 AAA
TAFFTW
TAF AMD
KFTW 080907Z 0809/0906 32016KT P6SM FEW300
     FM081700 33022G32KT P6SM FEW300
     FM090200 32014KT P6SM SKC=



000
FTUS44 KFWD 080907 AAA
TAFDFW
TAF AMD
KDFW 080907Z 0809/0912 33016KT P6SM FEW300
     FM081700 33024G34KT P6SM FEW300
     FM090200 32014KT P6SM SKC=



000
FTUS44 KFWD 080530
TAFDFW
TAF
KDFW 080530Z 0806/0912 34016KT P6SM FEW300
     FM081700 33024G34KT P6SM FEW300
     FM090200 32014KT P6SM SKC=



000
FTUS44 KFWD 080530
TAFACT
TAF
KACT 080530Z 0806/0906 35010KT P6SM FEW300
     FM080900 34016KT P6SM SKC
     FM081700 34021G31KT P6SM FEW300
     FM090300 32014KT P6SM SKC=



000
FTUS44 KFWD 080530
TAFDFW
TAF
KDFW 080530Z 0806/0912 34016KT P6SM FEW300
     FM081700 33024G34KT P6SM FEW300
     FM090200 32014KT P6SM SKC=



000
FTUS44 KFWD 080530
TAFFTW
TAF
KFTW 080530Z 0806/0906 34016KT P6SM FEW300
     FM081700 34022G32KT P6SM FEW300
     FM090200 32014KT P6SM SKC=



000
FTUS44 KFWD 080530
TAFACT
TAF
KACT 080530Z 0806/0906 35010KT P6SM FEW300
     FM080900 34016KT P6SM SKC
     FM081700 34021G31KT P6SM FEW300
     FM090300 32014KT P6SM SKC=



000
FTUS44 KFWD 080530
TAFFTW
TAF
KFTW 080530Z 0806/0906 34016KT P6SM FEW300
     FM081700 34022G32KT P6SM FEW300
     FM090200 32014KT P6SM SKC=



000
FTUS44 KFWD 080254 AAA
TAFDFW
TAF AMD
KDFW 080254Z 0803/0906 33009KT P6SM FEW300
     FM080500 34020KT P6SM FEW300
     FM081700 33024G34KT P6SM FEW300
     FM090200 32015KT P6SM SKC=



000
FTUS44 KFWD 080254 AAA
TAFFTW
TAF AMD
KFTW 080254Z 0803/0824 33007KT P6SM FEW300
     FM080500 34018KT P6SM FEW300
     FM081700 34022G32KT P6SM FEW300=



000
FTUS44 KFWD 080254 AAA
TAFACT
TAF AMD
KACT 080254Z 0803/0824 35010KT P6SM FEW300
     FM080900 34020KT P6SM SKC
     FM081700 34022G32KT P6SM FEW300=



000
FTUS44 KFWD 080254 AAA
TAFDFW
TAF AMD
KDFW 080254Z 0803/0906 33009KT P6SM FEW300
     FM080500 34020KT P6SM FEW300
     FM081700 33024G34KT P6SM FEW300
     FM090200 32015KT P6SM SKC=



000
FTUS44 KFWD 080254 AAA
TAFFTW
TAF AMD
KFTW 080254Z 0803/0824 33007KT P6SM FEW300
     FM080500 34018KT P6SM FEW300
     FM081700 34022G32KT P6SM FEW300=



000
FTUS44 KFWD 080254 AAA
TAFACT
TAF AMD
KACT 080254Z 0803/0824 35010KT P6SM FEW300
     FM080900 34020KT P6SM SKC
     FM081700 34022G32KT P6SM FEW300=



000
FTUS44 KFWD 072335
TAFFTW
TAF
KFTW 072335Z 0800/0824 33007KT P6SM FEW300
     FM080500 34018KT P6SM FEW300
     FM081700 34022G32KT P6SM FEW300=



000
FTUS44 KFWD 072335
TAFACT
TAF
KACT 072335Z 0800/0824 18008KT P6SM FEW300
     FM080300 34012KT P6SM FEW300
     FM080900 34020KT P6SM SKC
     FM081700 34022G32KT P6SM FEW300=



000
FTUS44 KFWD 072335
TAFFTW
TAF
KFTW 072335Z 0800/0824 33007KT P6SM FEW300
     FM080500 34018KT P6SM FEW300
     FM081700 34022G32KT P6SM FEW300=



000
FTUS44 KFWD 072335
TAFDFW
TAF
KDFW 072335Z 0800/0906 33009KT P6SM FEW300
     FM080500 34020KT P6SM FEW300
     FM081700 33024G34KT P6SM FEW300
     FM090200 32015KT P6SM SKC=



000
FTUS44 KFWD 072335
TAFACT
TAF
KACT 072335Z 0800/0824 18008KT P6SM FEW300
     FM080300 34012KT P6SM FEW300
     FM080900 34020KT P6SM SKC
     FM081700 34022G32KT P6SM FEW300=



000
FTUS44 KFWD 072335
TAFDFW
TAF
KDFW 072335Z 0800/0906 33009KT P6SM FEW300
     FM080500 34020KT P6SM FEW300
     FM081700 33024G34KT P6SM FEW300
     FM090200 32015KT P6SM SKC=



000
FTUS44 KFWD 072050 AAB
TAFFTW
TAF AMD
KFTW 072050Z 0721/0818 20010KT P6SM FEW300
     FM072300 25010KT P6SM FEW300
     FM080000 33012KT P6SM SCT300
     FM080600 34020KT P6SM FEW300
     FM081500 32017G27KT P6SM FEW300=



000
FTUS44 KFWD 072050 AAD
TAFACT
TAF AMD
KACT 072050Z 0721/0818 20012KT P6SM FEW300
     FM080300 34012KT P6SM FEW300
     FM080900 34020KT P6SM SKC=



000
FTUS44 KFWD 072050 AAB
TAFDFW
TAF AMD
KDFW 072050Z 0721/0824 20010KT P6SM FEW300
     FM072300 25010KT P6SM FEW300
     FM080000 33012KT P6SM SCT300
     FM080600 34020KT P6SM FEW300
     FM081500 32017G27KT P6SM FEW300=



    US Dept of Commerce
    National Oceanic and Atmospheric Administration
    National Weather Service
    1325 East West Highway
    Silver Spring, MD 20910
    Page Author: NWS Internet Services Team
Disclaimer
Information Quality
Credits
Glossary
Privacy Policy
Freedom of Information Act (FOIA)
About Us
Career Opportunities